createdAt,value
2022-11-22T00:00:26.655Z,20.19
2022-11-22T00:00:58.090Z,20.18
2022-11-22T00:01:29.573Z,20.18
2022-11-22T00:02:01.011Z,20.17
2022-11-22T00:02:32.477Z,20.17
2022-11-22T00:03:03.931Z,20.16
2022-11-22T00:03:35.318Z,20.16
2022-11-22T00:04:06.703Z,20.16
2022-11-22T00:04:38.090Z,20.16
2022-11-22T00:05:09.491Z,20.15
2022-11-22T00:05:40.882Z,20.13
2022-11-22T00:06:12.285Z,20.14
2022-11-22T00:06:43.712Z,20.14
2022-11-22T00:07:15.140Z,20.13
2022-11-22T00:07:46.671Z,20.13
2022-11-22T00:08:18.135Z,20.12
2022-11-22T00:08:49.532Z,20.11
2022-11-22T00:09:20.942Z,20.12
2022-11-22T00:09:52.395Z,20.12
2022-11-22T00:10:23.815Z,20.11
2022-11-22T00:10:55.256Z,20.10
2022-11-22T00:11:26.651Z,20.10
2022-11-22T00:11:58.075Z,20.08
2022-11-22T00:12:29.478Z,20.09
2022-11-22T00:13:00.862Z,20.10
2022-11-22T00:13:32.251Z,20.08
2022-11-22T00:14:03.652Z,20.08
2022-11-22T00:14:35.111Z,20.10
2022-11-22T00:15:06.499Z,20.07
2022-11-22T00:15:37.888Z,20.07
2022-11-22T00:16:09.308Z,20.07
2022-11-22T00:16:40.695Z,20.07
2022-11-22T00:17:12.190Z,20.06
2022-11-22T00:17:43.591Z,20.06
2022-11-22T00:18:14.999Z,20.05
2022-11-22T00:18:46.405Z,20.05
2022-11-22T00:19:17.799Z,20.05
2022-11-22T00:19:49.184Z,20.04
2022-11-22T00:20:20.573Z,20.03
2022-11-22T00:20:51.981Z,20.03
2022-11-22T00:21:23.390Z,20.03
2022-11-22T00:21:54.770Z,20.02
2022-11-22T00:22:26.233Z,20.03
2022-11-22T00:22:57.629Z,20.02
2022-11-22T00:23:29.023Z,20.02
2022-11-22T00:24:00.410Z,20.02
2022-11-22T00:24:31.799Z,20.02
2022-11-22T00:25:03.184Z,20.00
2022-11-22T00:25:34.567Z,20.00
2022-11-22T00:26:05.975Z,20.00
2022-11-22T00:26:37.399Z,19.99
2022-11-22T00:27:08.835Z,19.99
2022-11-22T00:27:40.259Z,19.99
2022-11-22T00:28:11.669Z,19.99
2022-11-22T00:28:43.064Z,19.99
2022-11-22T00:29:14.564Z,19.98
2022-11-22T00:29:45.979Z,19.97
2022-11-22T00:30:17.384Z,19.99
2022-11-22T00:30:48.791Z,19.97
2022-11-22T00:31:20.196Z,19.97
2022-11-22T00:31:51.607Z,19.96
2022-11-22T00:32:23.004Z,19.96
2022-11-22T00:32:54.398Z,19.95
2022-11-22T00:33:25.793Z,19.93
2022-11-22T00:33:57.180Z,19.94
2022-11-22T00:34:28.575Z,19.95
2022-11-22T00:34:59.984Z,19.94
2022-11-22T00:35:31.374Z,19.96
2022-11-22T00:36:02.768Z,19.93
2022-11-22T00:36:34.164Z,19.94
2022-11-22T00:37:05.555Z,19.93
2022-11-22T00:37:36.988Z,19.92
2022-11-22T00:38:08.375Z,19.93
2022-11-22T00:38:39.788Z,19.93
2022-11-22T00:39:11.182Z,19.92
2022-11-22T00:39:42.566Z,19.92
2022-11-22T00:40:13.979Z,19.92
2022-11-22T00:40:45.380Z,19.91
2022-11-22T00:41:16.776Z,19.92
2022-11-22T00:41:48.168Z,19.91
2022-11-22T00:42:19.560Z,19.90
2022-11-22T00:42:51.032Z,19.90
2022-11-22T00:43:22.424Z,19.90
2022-11-22T00:43:53.817Z,19.88
2022-11-22T00:44:25.234Z,19.89
2022-11-22T00:44:56.627Z,19.88
2022-11-22T00:45:28.138Z,19.89
2022-11-22T00:45:59.595Z,19.89
2022-11-22T00:46:30.987Z,19.88
2022-11-22T00:47:02.372Z,19.87
2022-11-22T00:47:33.772Z,19.87
2022-11-22T00:48:05.209Z,19.86
2022-11-22T00:48:36.597Z,19.86
2022-11-22T00:49:08.032Z,19.87
2022-11-22T00:49:39.435Z,19.86
2022-11-22T00:50:10.850Z,19.86
2022-11-22T00:50:42.243Z,19.86
2022-11-22T00:51:13.635Z,19.86
2022-11-22T00:51:45.031Z,19.84
2022-11-22T00:52:16.435Z,19.84
2022-11-22T00:52:47.829Z,19.83
2022-11-22T00:53:19.274Z,19.82
2022-11-22T00:53:50.654Z,19.82
2022-11-22T00:54:22.068Z,19.82
2022-11-22T00:54:55.202Z,19.82
2022-11-22T00:55:26.737Z,19.82
2022-11-22T00:55:58.148Z,19.82
2022-11-22T00:56:29.536Z,19.81
2022-11-22T00:57:00.931Z,19.82
2022-11-22T00:57:32.331Z,19.81
2022-11-22T00:58:03.718Z,19.81
2022-11-22T00:58:35.155Z,19.79
2022-11-22T00:59:06.831Z,19.79
2022-11-22T00:59:38.230Z,19.79
2022-11-22T01:00:09.627Z,19.79
2022-11-22T01:00:41.108Z,19.79
2022-11-22T01:01:12.601Z,19.79
2022-11-22T01:01:44.136Z,19.80
2022-11-22T01:02:15.583Z,19.78
2022-11-22T01:02:47.060Z,19.78
2022-11-22T01:03:18.451Z,19.78
2022-11-22T01:03:49.952Z,19.77
2022-11-22T01:04:21.361Z,19.78
2022-11-22T01:04:52.745Z,19.77
2022-11-22T01:05:24.262Z,19.77
2022-11-22T01:05:55.646Z,19.77
2022-11-22T01:06:27.042Z,19.77
2022-11-22T01:06:58.448Z,19.78
2022-11-22T01:07:29.908Z,19.77
2022-11-22T01:08:01.338Z,19.77
2022-11-22T01:08:32.722Z,19.77
2022-11-22T01:09:04.195Z,19.76
2022-11-22T01:09:35.589Z,19.76
2022-11-22T01:10:06.973Z,19.74
2022-11-22T01:10:38.373Z,19.74
2022-11-22T01:11:09.759Z,19.74
2022-11-22T01:11:41.157Z,19.73
2022-11-22T01:12:12.547Z,19.73
2022-11-22T01:12:44.065Z,19.73
2022-11-22T01:13:15.494Z,19.73
2022-11-22T01:13:46.900Z,19.73
2022-11-22T01:14:18.286Z,19.73
2022-11-22T01:14:49.676Z,19.72
2022-11-22T01:15:21.067Z,19.71
2022-11-22T01:15:52.470Z,19.74
2022-11-22T01:16:23.856Z,19.73
2022-11-22T01:16:55.242Z,19.71
2022-11-22T01:17:26.628Z,19.71
2022-11-22T01:17:58.171Z,19.71
2022-11-22T01:18:29.579Z,19.70
2022-11-22T01:19:00.972Z,19.69
2022-11-22T01:19:32.614Z,19.70
2022-11-22T01:20:04.155Z,19.70
2022-11-22T01:20:35.556Z,19.70
2022-11-22T01:21:06.962Z,19.69
2022-11-22T01:21:38.356Z,19.69
2022-11-22T01:22:09.743Z,19.69
2022-11-22T01:22:41.141Z,19.68
2022-11-22T01:23:12.563Z,19.68
2022-11-22T01:23:43.965Z,19.68
2022-11-22T01:24:15.359Z,19.67
2022-11-22T01:24:46.757Z,19.67
2022-11-22T01:25:18.171Z,19.68
2022-11-22T01:25:49.578Z,19.67
2022-11-22T01:26:20.966Z,19.67
2022-11-22T01:26:52.376Z,19.68
2022-11-22T01:27:23.783Z,19.67
2022-11-22T01:27:55.172Z,19.65
2022-11-22T01:28:26.661Z,19.67
2022-11-22T01:28:58.042Z,19.66
2022-11-22T01:29:29.731Z,19.65
2022-11-22T01:30:01.426Z,19.65
2022-11-22T01:30:32.821Z,19.66
2022-11-22T01:31:04.216Z,19.67
2022-11-22T01:31:35.623Z,19.66
2022-11-22T01:32:07.016Z,19.65
2022-11-22T01:32:38.428Z,19.65
2022-11-22T01:33:09.833Z,19.64
2022-11-22T01:33:41.247Z,19.64
2022-11-22T01:34:12.636Z,19.63
2022-11-22T01:34:44.033Z,19.64
2022-11-22T01:35:15.424Z,19.64
2022-11-22T01:35:46.832Z,19.63
2022-11-22T01:36:18.234Z,19.64
2022-11-22T01:36:49.668Z,19.63
2022-11-22T01:37:21.063Z,19.62
2022-11-22T01:37:52.462Z,19.62
2022-11-22T01:38:23.883Z,19.62
2022-11-22T01:38:55.293Z,19.61
2022-11-22T01:39:26.708Z,19.61
2022-11-22T01:39:58.099Z,19.60
2022-11-22T01:40:29.481Z,19.60
2022-11-22T01:41:00.918Z,19.60
2022-11-22T01:41:32.315Z,19.60
2022-11-22T01:42:03.711Z,19.59
2022-11-22T01:42:35.103Z,19.59
2022-11-22T01:43:06.492Z,19.59
2022-11-22T01:43:37.884Z,19.58
2022-11-22T01:44:09.328Z,19.59
2022-11-22T01:44:40.730Z,19.58
2022-11-22T01:45:12.136Z,19.58
2022-11-22T01:45:43.518Z,19.56
2022-11-22T01:46:14.931Z,19.57
2022-11-22T01:46:46.321Z,19.57
2022-11-22T01:47:17.731Z,19.58
2022-11-22T01:47:49.118Z,19.55
2022-11-22T01:48:20.538Z,19.55
2022-11-22T01:48:51.934Z,19.55
2022-11-22T01:49:23.387Z,19.55
2022-11-22T01:49:54.783Z,19.55
2022-11-22T01:50:26.180Z,19.55
2022-11-22T01:50:57.582Z,19.55
2022-11-22T01:51:28.962Z,19.54
2022-11-22T01:52:00.356Z,19.55
2022-11-22T01:52:31.763Z,19.54
2022-11-22T01:53:03.160Z,19.53
2022-11-22T01:53:34.580Z,19.52
2022-11-22T01:54:06.015Z,19.52
2022-11-22T01:54:37.403Z,19.53
2022-11-22T01:55:08.823Z,19.52
2022-11-22T01:55:40.215Z,19.50
2022-11-22T01:56:11.604Z,19.50
2022-11-22T01:56:42.990Z,19.50
2022-11-22T01:57:14.402Z,19.49
2022-11-22T01:57:45.791Z,19.49
2022-11-22T01:58:17.191Z,19.49
2022-11-22T01:58:48.634Z,19.49
2022-11-22T01:59:20.018Z,19.49
2022-11-22T01:59:51.411Z,19.48
2022-11-22T02:00:22.825Z,19.48
2022-11-22T02:00:54.272Z,19.47
2022-11-22T02:01:25.788Z,19.47
2022-11-22T02:01:57.275Z,19.47
2022-11-22T02:02:28.663Z,19.47
2022-11-22T02:03:00.057Z,19.47
2022-11-22T02:03:31.459Z,19.47
2022-11-22T02:04:03.023Z,19.46
2022-11-22T02:04:34.425Z,19.47
2022-11-22T02:05:05.848Z,19.46
2022-11-22T02:05:37.254Z,19.45
2022-11-22T02:06:08.640Z,19.45
2022-11-22T02:06:40.038Z,19.45
2022-11-22T02:07:11.485Z,19.43
2022-11-22T02:07:42.975Z,19.41
2022-11-22T02:08:14.423Z,19.44
2022-11-22T02:08:45.835Z,19.43
2022-11-22T02:09:17.257Z,19.42
2022-11-22T02:09:48.657Z,19.43
2022-11-22T02:10:20.068Z,19.43
2022-11-22T02:10:51.460Z,19.41
2022-11-22T02:11:22.855Z,19.41
2022-11-22T02:11:54.254Z,19.41
2022-11-22T02:12:25.636Z,19.41
2022-11-22T02:12:57.027Z,19.41
2022-11-22T02:13:28.409Z,19.41
2022-11-22T02:13:59.794Z,19.41
2022-11-22T02:14:31.199Z,19.40
2022-11-22T02:15:02.584Z,19.39
2022-11-22T02:15:33.988Z,19.39
2022-11-22T02:16:05.375Z,19.38
2022-11-22T02:16:36.778Z,19.39
2022-11-22T02:17:08.175Z,19.38
2022-11-22T02:17:39.580Z,19.38
2022-11-22T02:18:10.992Z,19.37
2022-11-22T02:18:42.391Z,19.36
2022-11-22T02:19:13.851Z,19.38
2022-11-22T02:19:45.249Z,19.36
2022-11-22T02:20:16.661Z,19.35
2022-11-22T02:20:48.052Z,19.35
2022-11-22T02:21:19.465Z,19.36
2022-11-22T02:21:50.860Z,19.35
2022-11-22T02:22:22.239Z,19.35
2022-11-22T02:22:53.624Z,19.35
2022-11-22T02:23:25.007Z,19.35
2022-11-22T02:23:56.481Z,19.34
2022-11-22T02:24:27.894Z,19.33
2022-11-22T02:24:59.298Z,19.33
2022-11-22T02:25:30.709Z,19.34
2022-11-22T02:26:02.104Z,19.34
2022-11-22T02:26:33.495Z,19.33
2022-11-22T02:27:04.897Z,19.32
2022-11-22T02:27:36.278Z,19.31
2022-11-22T02:28:07.667Z,19.32
2022-11-22T02:28:39.064Z,19.31
2022-11-22T02:29:10.456Z,19.31
2022-11-22T02:29:41.964Z,19.30
2022-11-22T02:30:13.361Z,19.30
2022-11-22T02:30:44.775Z,19.30
2022-11-22T02:31:16.167Z,19.30
2022-11-22T02:31:47.559Z,19.29
2022-11-22T02:32:18.988Z,19.29
2022-11-22T02:32:50.377Z,19.29
2022-11-22T02:33:21.767Z,19.28
2022-11-22T02:33:55.323Z,19.28
2022-11-22T02:34:28.905Z,19.28
2022-11-22T02:35:00.534Z,19.25
2022-11-22T02:35:31.919Z,19.27
2022-11-22T02:36:03.306Z,19.25
2022-11-22T02:36:34.695Z,19.26
2022-11-22T02:37:06.082Z,19.25
2022-11-22T02:37:37.471Z,19.25
2022-11-22T02:38:08.878Z,19.25
2022-11-22T02:38:40.288Z,19.25
2022-11-22T02:39:11.683Z,19.24
2022-11-22T02:39:43.074Z,19.24
2022-11-22T02:40:14.592Z,19.24
2022-11-22T02:40:45.988Z,19.24
2022-11-22T02:41:17.393Z,19.24
2022-11-22T02:41:48.776Z,19.24
2022-11-22T02:42:20.167Z,19.23
2022-11-22T02:42:51.557Z,19.23
2022-11-22T02:43:22.947Z,19.23
2022-11-22T02:43:54.386Z,19.23
2022-11-22T02:44:25.771Z,19.21
2022-11-22T02:44:57.167Z,19.21
2022-11-22T02:45:28.601Z,19.21
2022-11-22T02:46:00.014Z,19.20
2022-11-22T02:46:31.401Z,19.19
2022-11-22T02:47:02.799Z,19.19
2022-11-22T02:47:34.194Z,19.19
2022-11-22T02:48:05.581Z,19.20
2022-11-22T02:48:36.972Z,19.19
2022-11-22T02:49:08.359Z,19.19
2022-11-22T02:49:39.748Z,19.18
2022-11-22T02:50:11.135Z,19.18
2022-11-22T02:50:42.620Z,19.18
2022-11-22T02:51:14.012Z,19.18
2022-11-22T02:51:45.406Z,19.18
2022-11-22T02:52:16.812Z,19.17
2022-11-22T02:52:48.202Z,19.17
2022-11-22T02:53:19.595Z,19.16
2022-11-22T02:53:51.003Z,19.17
2022-11-22T02:54:22.393Z,19.16
2022-11-22T02:54:53.778Z,19.15
2022-11-22T02:55:25.191Z,19.15
2022-11-22T02:55:56.636Z,19.15
2022-11-22T02:56:28.044Z,19.15
2022-11-22T02:56:59.436Z,19.15
2022-11-22T02:57:30.823Z,19.14
2022-11-22T02:58:02.221Z,19.13
2022-11-22T02:58:33.612Z,19.15
2022-11-22T02:59:04.998Z,19.14
2022-11-22T02:59:36.390Z,19.14
2022-11-22T03:00:07.779Z,19.12
2022-11-22T03:00:39.210Z,19.13
2022-11-22T03:01:10.791Z,19.11
2022-11-22T03:01:42.231Z,19.12
2022-11-22T03:02:13.640Z,19.11
2022-11-22T03:02:45.029Z,19.11
2022-11-22T03:03:16.442Z,19.10
2022-11-22T03:03:48.092Z,19.11
2022-11-22T03:04:19.559Z,19.10
2022-11-22T03:04:50.946Z,19.10
2022-11-22T03:05:22.372Z,19.09
2022-11-22T03:05:53.768Z,19.10
2022-11-22T03:06:25.299Z,19.08
2022-11-22T03:06:56.708Z,19.07
2022-11-22T03:07:28.160Z,19.07
2022-11-22T03:07:59.562Z,19.07
2022-11-22T03:08:30.979Z,19.07
2022-11-22T03:09:02.424Z,19.06
2022-11-22T03:09:33.919Z,19.06
2022-11-22T03:10:05.428Z,19.05
2022-11-22T03:10:36.818Z,19.06
2022-11-22T03:11:08.210Z,19.06
2022-11-22T03:11:39.783Z,19.05
2022-11-22T03:12:11.187Z,19.05
2022-11-22T03:12:42.582Z,19.04
2022-11-22T03:13:13.997Z,19.04
2022-11-22T03:13:45.391Z,19.05
2022-11-22T03:14:16.791Z,19.03
2022-11-22T03:14:48.259Z,19.04
2022-11-22T03:15:19.647Z,19.04
2022-11-22T03:15:51.029Z,19.05
2022-11-22T03:16:22.416Z,19.02
2022-11-22T03:16:53.832Z,19.03
2022-11-22T03:17:25.231Z,19.02
2022-11-22T03:17:56.638Z,19.02
2022-11-22T03:18:28.058Z,19.02
2022-11-22T03:18:59.448Z,19.01
2022-11-22T03:19:31.148Z,19.01
2022-11-22T03:20:02.824Z,19.01
2022-11-22T03:20:34.226Z,19.01
2022-11-22T03:21:05.634Z,19.00
2022-11-22T03:21:37.040Z,18.99
2022-11-22T03:22:08.837Z,19.00
2022-11-22T03:22:42.764Z,18.99
2022-11-22T03:23:14.151Z,18.99
2022-11-22T03:23:45.543Z,18.98
2022-11-22T03:24:16.930Z,18.97
2022-11-22T03:24:48.312Z,18.99
2022-11-22T03:25:19.714Z,18.98
2022-11-22T03:25:51.214Z,18.97
2022-11-22T03:26:22.603Z,18.96
2022-11-22T03:26:54.013Z,18.95
2022-11-22T03:27:25.401Z,18.96
2022-11-22T03:27:56.796Z,18.97
2022-11-22T03:28:28.185Z,18.95
2022-11-22T03:28:59.575Z,18.95
2022-11-22T03:29:31.205Z,18.95
2022-11-22T03:30:02.747Z,18.95
2022-11-22T03:30:34.186Z,18.94
2022-11-22T03:31:05.588Z,18.92
2022-11-22T03:31:36.971Z,18.93
2022-11-22T03:32:08.381Z,18.93
2022-11-22T03:32:39.774Z,18.92
2022-11-22T03:33:11.164Z,18.92
2022-11-22T03:33:42.566Z,18.92
2022-11-22T03:34:13.970Z,18.91
2022-11-22T03:34:45.360Z,18.90
2022-11-22T03:35:16.750Z,18.90
2022-11-22T03:35:48.194Z,18.91
2022-11-22T03:36:19.605Z,18.90
2022-11-22T03:36:50.996Z,18.90
2022-11-22T03:37:22.417Z,18.90
2022-11-22T03:37:53.821Z,18.89
2022-11-22T03:38:25.213Z,18.90
2022-11-22T03:38:56.628Z,18.89
2022-11-22T03:39:28.313Z,18.89
2022-11-22T03:39:59.874Z,18.88
2022-11-22T03:40:31.283Z,18.89
2022-11-22T03:41:02.804Z,18.88
2022-11-22T03:41:34.200Z,18.87
2022-11-22T03:42:05.608Z,18.87
2022-11-22T03:42:36.995Z,18.86
2022-11-22T03:43:08.391Z,18.86
2022-11-22T03:43:39.785Z,18.86
2022-11-22T03:44:11.175Z,18.85
2022-11-22T03:44:42.577Z,18.86
2022-11-22T03:45:13.993Z,18.84
2022-11-22T03:45:45.425Z,18.85
2022-11-22T03:46:16.958Z,18.84
2022-11-22T03:46:48.373Z,18.83
2022-11-22T03:47:19.767Z,18.84
2022-11-22T03:47:51.155Z,18.84
2022-11-22T03:48:22.554Z,18.84
2022-11-22T03:48:53.947Z,18.84
2022-11-22T03:49:25.335Z,18.83
2022-11-22T03:49:56.739Z,18.84
2022-11-22T03:50:28.135Z,18.83
2022-11-22T03:50:59.559Z,18.82
2022-11-22T03:51:31.102Z,18.81
2022-11-22T03:52:02.502Z,18.82
2022-11-22T03:52:33.897Z,18.81
2022-11-22T03:53:05.298Z,18.82
2022-11-22T03:53:36.687Z,18.81
2022-11-22T03:54:08.079Z,18.80
2022-11-22T03:54:39.472Z,18.80
2022-11-22T03:55:10.864Z,18.80
2022-11-22T03:55:42.274Z,18.80
2022-11-22T03:56:13.679Z,18.81
2022-11-22T03:56:45.169Z,18.78
2022-11-22T03:57:16.584Z,18.78
2022-11-22T03:57:47.992Z,18.78
2022-11-22T03:58:19.408Z,18.78
2022-11-22T03:58:50.804Z,18.77
2022-11-22T03:59:22.210Z,18.77
2022-11-22T03:59:53.611Z,18.75
2022-11-22T04:00:25.023Z,18.76
2022-11-22T04:00:56.443Z,18.76
2022-11-22T04:01:27.931Z,18.76
2022-11-22T04:01:59.716Z,18.75
2022-11-22T04:02:31.160Z,18.75
2022-11-22T04:03:02.558Z,18.73
2022-11-22T04:03:33.970Z,18.75
2022-11-22T04:04:05.417Z,18.75
2022-11-22T04:04:36.813Z,18.74
2022-11-22T04:05:08.208Z,18.75
2022-11-22T04:05:39.594Z,18.73
2022-11-22T04:06:11.001Z,18.74
2022-11-22T04:06:42.396Z,18.72
2022-11-22T04:07:13.934Z,18.72
2022-11-22T04:07:45.469Z,18.71
2022-11-22T04:08:16.946Z,18.73
2022-11-22T04:08:48.382Z,18.72
2022-11-22T04:09:19.875Z,18.71
2022-11-22T04:09:51.301Z,18.72
2022-11-22T04:10:22.691Z,18.71
2022-11-22T04:10:54.085Z,18.71
2022-11-22T04:11:25.471Z,18.69
2022-11-22T04:11:56.878Z,18.70
2022-11-22T04:12:28.375Z,18.69
2022-11-22T04:12:59.771Z,18.68
2022-11-22T04:13:31.182Z,18.68
2022-11-22T04:14:02.579Z,18.68
2022-11-22T04:14:33.967Z,18.67
2022-11-22T04:15:05.379Z,18.67
2022-11-22T04:15:36.762Z,18.67
2022-11-22T04:16:08.180Z,18.68
2022-11-22T04:16:39.587Z,18.67
2022-11-22T04:17:11.011Z,18.66
2022-11-22T04:17:42.575Z,18.66
2022-11-22T04:18:13.984Z,18.66
2022-11-22T04:18:45.397Z,18.66
2022-11-22T04:19:16.807Z,18.64
2022-11-22T04:19:48.191Z,18.65
2022-11-22T04:20:19.575Z,18.65
2022-11-22T04:20:50.966Z,18.65
2022-11-22T04:21:22.356Z,18.63
2022-11-22T04:21:53.750Z,18.63
2022-11-22T04:22:25.155Z,18.64
2022-11-22T04:22:56.557Z,18.63
2022-11-22T04:23:33.555Z,18.63
2022-11-22T04:24:05.513Z,18.63
2022-11-22T04:24:36.909Z,18.61
2022-11-22T04:25:08.295Z,18.62
2022-11-22T04:25:39.678Z,18.62
2022-11-22T04:26:11.067Z,18.62
2022-11-22T04:26:42.450Z,18.61
2022-11-22T04:27:13.840Z,18.61
2022-11-22T04:27:45.236Z,18.60
2022-11-22T04:28:16.707Z,18.59
2022-11-22T04:29:08.655Z,18.59
2022-11-22T04:29:39.479Z,18.58
2022-11-22T04:30:12.216Z,18.59
2022-11-22T04:30:46.208Z,18.59
2022-11-22T04:31:17.603Z,18.59
2022-11-22T04:31:49.004Z,18.58
2022-11-22T04:32:20.416Z,18.57
2022-11-22T04:32:51.828Z,18.57
2022-11-22T04:33:23.274Z,18.56
2022-11-22T04:33:54.674Z,18.57
2022-11-22T04:34:26.063Z,18.56
2022-11-22T04:34:57.453Z,18.58
2022-11-22T04:35:28.862Z,18.57
2022-11-22T04:36:00.249Z,18.55
2022-11-22T04:36:31.643Z,18.55
2022-11-22T04:37:03.036Z,18.56
2022-11-22T04:37:34.418Z,18.56
2022-11-22T04:38:05.822Z,18.54
2022-11-22T04:38:37.282Z,18.55
2022-11-22T04:39:08.678Z,18.54
2022-11-22T04:39:40.079Z,18.53
2022-11-22T04:40:11.529Z,18.53
2022-11-22T04:40:42.924Z,18.52
2022-11-22T04:41:14.315Z,18.51
2022-11-22T04:41:45.712Z,18.51
2022-11-22T04:42:17.115Z,18.51
2022-11-22T04:42:48.529Z,18.50
2022-11-22T04:43:19.935Z,18.50
2022-11-22T04:43:51.395Z,18.52
2022-11-22T04:44:22.798Z,18.50
2022-11-22T04:44:54.187Z,18.50
2022-11-22T04:45:25.620Z,18.49
2022-11-22T04:45:57.015Z,18.49
2022-11-22T04:46:28.411Z,18.50
2022-11-22T04:46:59.798Z,18.49
2022-11-22T04:47:31.202Z,18.48
2022-11-22T04:48:02.597Z,18.48
2022-11-22T04:48:33.986Z,18.48
2022-11-22T04:49:05.457Z,18.47
2022-11-22T04:49:36.846Z,18.47
2022-11-22T04:50:08.239Z,18.47
2022-11-22T04:50:39.621Z,18.46
2022-11-22T04:51:11.010Z,18.46
2022-11-22T04:51:42.434Z,18.46
2022-11-22T04:52:13.818Z,18.46
2022-11-22T04:52:45.223Z,18.45
2022-11-22T04:53:16.621Z,18.45
2022-11-22T04:53:48.047Z,18.45
2022-11-22T04:54:19.510Z,18.45
2022-11-22T04:54:50.905Z,18.44
2022-11-22T04:55:22.301Z,18.44
2022-11-22T04:55:53.696Z,18.43
2022-11-22T04:56:25.078Z,18.44
2022-11-22T04:56:56.464Z,18.43
2022-11-22T04:57:27.864Z,18.44
2022-11-22T04:58:00.404Z,18.44
2022-11-22T04:58:31.987Z,18.42
2022-11-22T04:59:03.374Z,18.42
2022-11-22T04:59:34.802Z,18.42
2022-11-22T05:00:06.191Z,18.42
2022-11-22T05:00:37.632Z,18.42
2022-11-22T05:01:09.106Z,18.40
2022-11-22T05:01:40.626Z,18.39
2022-11-22T05:02:12.015Z,18.39
2022-11-22T05:02:43.413Z,18.40
2022-11-22T05:03:14.826Z,18.39
2022-11-22T05:03:46.215Z,18.40
2022-11-22T05:04:17.623Z,18.39
2022-11-22T05:04:50.794Z,18.39
2022-11-22T05:05:22.393Z,18.39
2022-11-22T05:05:53.783Z,18.38
2022-11-22T05:06:25.166Z,18.38
2022-11-22T05:06:56.568Z,18.38
2022-11-22T05:07:27.963Z,18.38
2022-11-22T05:07:59.377Z,18.37
2022-11-22T05:08:30.936Z,18.37
2022-11-22T05:09:02.326Z,18.37
2022-11-22T05:09:33.726Z,18.37
2022-11-22T05:10:05.272Z,18.37
2022-11-22T05:10:36.670Z,18.35
2022-11-22T05:11:08.058Z,18.34
2022-11-22T05:11:39.447Z,18.35
2022-11-22T05:12:10.843Z,18.35
2022-11-22T05:12:42.228Z,18.33
2022-11-22T05:13:13.623Z,18.34
2022-11-22T05:13:45.030Z,18.33
2022-11-22T05:14:16.439Z,18.34
2022-11-22T05:14:47.947Z,18.34
2022-11-22T05:15:19.358Z,18.32
2022-11-22T05:15:50.744Z,18.32
2022-11-22T05:16:22.127Z,18.31
2022-11-22T05:16:53.507Z,18.32
2022-11-22T05:17:24.903Z,18.32
2022-11-22T05:17:56.311Z,18.32
2022-11-22T05:18:27.699Z,18.31
2022-11-22T05:18:59.405Z,18.31
2022-11-22T05:19:31.289Z,18.32
2022-11-22T05:20:02.997Z,18.30
2022-11-22T05:20:34.378Z,18.30
2022-11-22T05:21:05.767Z,18.30
2022-11-22T05:21:37.207Z,18.29
2022-11-22T05:22:08.594Z,18.29
2022-11-22T05:22:40.022Z,18.30
2022-11-22T05:23:11.406Z,18.29
2022-11-22T05:23:42.813Z,18.27
2022-11-22T05:24:14.207Z,18.29
2022-11-22T05:24:45.551Z,18.28
2022-11-22T05:25:20.178Z,18.27
2022-11-22T05:25:54.061Z,18.27
2022-11-22T05:26:25.475Z,18.27
2022-11-22T05:26:56.879Z,18.27
2022-11-22T05:27:28.262Z,18.27
2022-11-22T05:27:59.649Z,18.26
2022-11-22T05:28:31.046Z,18.25
2022-11-22T05:29:02.434Z,18.25
2022-11-22T05:29:33.821Z,18.24
2022-11-22T05:30:05.215Z,18.24
2022-11-22T05:30:36.736Z,18.23
2022-11-22T05:31:08.129Z,18.22
2022-11-22T05:31:39.542Z,18.22
2022-11-22T05:32:10.941Z,18.21
2022-11-22T05:32:42.572Z,18.20
2022-11-22T05:33:13.967Z,18.20
2022-11-22T05:33:45.355Z,18.20
2022-11-22T05:34:16.750Z,18.20
2022-11-22T05:34:48.142Z,18.20
2022-11-22T05:35:19.552Z,18.21
2022-11-22T05:35:50.999Z,18.21
2022-11-22T05:36:22.398Z,18.21
2022-11-22T05:36:53.794Z,18.20
2022-11-22T05:37:25.185Z,18.19
2022-11-22T05:37:56.589Z,18.19
2022-11-22T05:38:27.982Z,18.19
2022-11-22T05:38:59.382Z,18.19
2022-11-22T05:39:31.002Z,18.18
2022-11-22T05:40:02.639Z,18.19
2022-11-22T05:40:34.032Z,18.17
2022-11-22T05:41:05.567Z,18.18
2022-11-22T05:41:36.973Z,18.18
2022-11-22T05:42:08.378Z,18.15
2022-11-22T05:42:39.778Z,18.16
2022-11-22T05:43:11.182Z,18.17
2022-11-22T05:43:42.572Z,18.17
2022-11-22T05:44:13.960Z,18.16
2022-11-22T05:44:45.356Z,18.15
2022-11-22T05:45:16.761Z,18.15
2022-11-22T05:45:48.160Z,18.15
2022-11-22T05:46:23.786Z,18.15
2022-11-22T05:46:55.955Z,18.14
2022-11-22T05:47:27.348Z,18.14
2022-11-22T05:47:58.751Z,18.14
2022-11-22T05:48:30.142Z,18.13
2022-11-22T05:49:01.550Z,18.12
2022-11-22T05:49:33.158Z,18.13
2022-11-22T05:50:04.669Z,18.14
2022-11-22T05:50:36.074Z,18.13
2022-11-22T05:51:07.469Z,18.13
2022-11-22T05:51:38.887Z,18.12
2022-11-22T05:52:10.294Z,18.11
2022-11-22T05:52:41.678Z,18.12
2022-11-22T05:53:13.073Z,18.12
2022-11-22T05:53:44.467Z,18.10
2022-11-22T05:54:15.876Z,18.09
2022-11-22T05:54:47.334Z,18.09
2022-11-22T05:55:18.745Z,18.09
2022-11-22T05:55:50.157Z,18.09
2022-11-22T05:56:21.549Z,18.10
2022-11-22T05:56:52.940Z,18.09
2022-11-22T05:57:24.338Z,18.08
2022-11-22T05:57:55.726Z,18.08
2022-11-22T05:58:27.127Z,18.09
2022-11-22T05:58:58.523Z,18.06
2022-11-22T05:59:30.154Z,18.06
2022-11-22T06:00:01.692Z,18.06
2022-11-22T06:00:33.095Z,18.08
2022-11-22T06:01:04.484Z,18.06
2022-11-22T06:01:35.893Z,18.05
2022-11-22T06:02:07.453Z,18.05
2022-11-22T06:02:38.968Z,18.05
2022-11-22T06:03:10.439Z,18.05
2022-11-22T06:03:41.828Z,18.04
2022-11-22T06:04:13.211Z,18.03
2022-11-22T06:04:44.599Z,18.04
2022-11-22T06:05:15.990Z,18.04
2022-11-22T06:05:47.374Z,18.03
2022-11-22T06:06:18.763Z,18.03
2022-11-22T06:06:50.152Z,18.02
2022-11-22T06:07:21.777Z,18.02
2022-11-22T06:07:53.257Z,18.02
2022-11-22T06:08:24.702Z,18.02
2022-11-22T06:08:56.099Z,18.01
2022-11-22T06:09:27.731Z,18.01
2022-11-22T06:09:59.898Z,18.00
2022-11-22T06:10:31.306Z,18.00
2022-11-22T06:11:02.717Z,18.00
2022-11-22T06:11:34.103Z,18.00
2022-11-22T06:12:05.497Z,17.98
2022-11-22T06:12:36.919Z,17.99
2022-11-22T06:13:08.306Z,18.00
2022-11-22T06:13:39.693Z,17.99
2022-11-22T06:14:11.100Z,17.98
2022-11-22T06:14:43.636Z,18.00
2022-11-22T06:15:15.222Z,17.98
2022-11-22T06:15:46.625Z,17.98
2022-11-22T06:16:18.024Z,17.98
2022-11-22T06:16:49.451Z,17.97
2022-11-22T06:17:20.844Z,17.97
2022-11-22T06:17:52.319Z,17.97
2022-11-22T06:18:23.700Z,17.97
2022-11-22T06:18:55.097Z,17.97
2022-11-22T06:19:26.502Z,17.96
2022-11-22T06:20:02.687Z,17.96
2022-11-22T06:20:37.027Z,17.95
2022-11-22T06:21:08.417Z,17.95
2022-11-22T06:21:39.807Z,17.95
2022-11-22T06:22:11.204Z,17.95
2022-11-22T06:22:42.616Z,17.94
2022-11-22T06:23:14.329Z,17.95
2022-11-22T06:23:45.715Z,17.94
2022-11-22T06:24:17.167Z,17.94
2022-11-22T06:24:48.592Z,17.94
2022-11-22T06:25:19.987Z,17.92
2022-11-22T06:25:51.396Z,17.94
2022-11-22T06:26:22.787Z,17.95
2022-11-22T06:26:54.207Z,17.92
2022-11-22T06:27:25.625Z,17.92
2022-11-22T06:27:57.040Z,17.92
2022-11-22T06:28:28.596Z,17.91
2022-11-22T06:28:59.983Z,17.91
2022-11-22T06:29:31.748Z,17.90
2022-11-22T06:30:03.285Z,17.91
2022-11-22T06:30:34.670Z,17.91
2022-11-22T06:31:06.075Z,17.91
2022-11-22T06:31:37.460Z,17.91
2022-11-22T06:32:08.846Z,17.90
2022-11-22T06:32:40.255Z,17.90
2022-11-22T06:33:11.652Z,17.90
2022-11-22T06:33:43.062Z,17.89
2022-11-22T06:34:14.473Z,17.89
2022-11-22T06:34:45.870Z,17.89
2022-11-22T06:35:17.269Z,17.89
2022-11-22T06:35:48.664Z,17.88
2022-11-22T06:36:20.050Z,17.89
2022-11-22T06:36:51.441Z,17.88
2022-11-22T06:37:22.856Z,17.87
2022-11-22T06:38:00.317Z,17.87
2022-11-22T06:38:31.984Z,17.86
2022-11-22T06:39:03.736Z,17.86
2022-11-22T06:39:35.339Z,17.87
2022-11-22T06:40:06.762Z,17.85
2022-11-22T06:40:38.159Z,17.87
2022-11-22T06:41:09.542Z,17.86
2022-11-22T06:41:40.956Z,17.86
2022-11-22T06:42:12.356Z,17.86
2022-11-22T06:42:43.783Z,17.86
2022-11-22T06:43:15.194Z,17.85
2022-11-22T06:43:48.972Z,17.85
2022-11-22T06:44:20.847Z,17.84
2022-11-22T06:44:52.243Z,17.85
2022-11-22T06:45:23.646Z,17.84
2022-11-22T06:45:55.041Z,17.84